Time;durP1;ratioP1;P1;durP2;ratioP2;P2;SDS_P1;SDS_P2;PMS_P1;PMS_P2;Temp;Humidity;BMP_temperature;BMP_pressure;BME280_temperature;BME280_humidity;BME280_pressure;Samples;Min_cycle;Max_cycle;Signal;HPM_P1;HPM_P2
2024/03/13 00:00:10;;;;;;;1.55;1.00;;;;;;;11.25;81.95;99603.09;5041367;28;20120;-48
2024/03/13 00:02:37;;;;;;;1.75;0.85;;;;;;;11.30;82.62;99601.31;5038445;28;20049;-46
2024/03/13 00:05:05;;;;;;;2.35;0.75;;;;;;;11.31;81.92;99607.34;5046217;28;20712;-44
2024/03/13 00:07:31;;;;;;;2.08;0.43;;;;;;;11.26;82.01;99610.03;5043723;28;20052;-46
2024/03/13 00:10:00;;;;;;;0.98;0.60;;;;;;;11.20;83.14;99610.09;5040399;28;20053;-48
2024/03/13 00:12:28;;;;;;;2.63;0.75;;;;;;;11.30;82.42;99606.50;5044798;28;20053;-45
2024/03/13 00:14:56;;;;;;;2.10;0.70;;;;;;;11.30;81.58;99609.09;5045895;28;20045;-46
2024/03/13 00:17:23;;;;;;;3.95;0.73;;;;;;;11.27;81.93;99616.91;5038525;28;20060;-44
2024/03/13 00:19:51;;;;;;;1.45;0.70;;;;;;;11.33;82.02;99605.59;5045220;28;20826;-46
2024/03/13 00:22:19;;;;;;;2.75;0.80;;;;;;;11.32;81.85;99609.09;5043779;28;20050;-49
2024/03/13 00:24:47;;;;;;;1.60;0.75;;;;;;;11.21;82.48;99609.19;5044808;28;20099;-46
2024/03/13 00:27:15;;;;;;;3.15;1.10;;;;;;;11.30;82.68;99610.81;5046031;28;20091;-46
2024/03/13 00:29:44;;;;;;;3.10;0.73;;;;;;;11.28;81.72;99608.25;5042114;28;20052;-48
2024/03/13 00:32:13;;;;;;;0.90;0.60;;;;;;;11.24;82.56;99606.56;5041461;28;20512;-48
2024/03/13 00:34:40;;;;;;;1.20;0.43;;;;;;;11.17;82.23;99604.94;5046732;28;20071;-46
2024/03/13 00:37:09;;;;;;;3.83;0.80;;;;;;;11.13;82.99;99609.31;5045819;28;20063;-46
2024/03/13 00:39:36;;;;;;;1.88;0.52;;;;;;;11.15;81.65;99607.53;5046481;28;20458;-46
2024/03/13 00:42:03;;;;;;;1.95;1.52;;;;;;;11.22;81.62;99608.34;5045348;28;20244;-45
2024/03/13 00:44:31;;;;;;;1.00;0.43;;;;;;;11.16;82.26;99613.59;5048410;28;20045;-48
2024/03/13 00:46:57;;;;;;;0.70;0.50;;;;;;;11.13;82.44;99598.06;5046275;28;20056;-48
2024/03/13 00:49:24;;;;;;;2.00;0.77;;;;;;;11.13;82.91;99598.06;5040672;28;20052;-46
2024/03/13 00:51:51;;;;;;;1.10;0.60;;;;;;;11.16;81.63;99595.44;5042024;28;20127;-50
2024/03/13 00:54:17;;;;;;;3.33;0.98;;;;;;;11.05;82.59;99601.59;5038071;28;20053;-47
2024/03/13 00:56:47;;;;;;;2.22;0.40;;;;;;;11.03;83.41;99599.91;5036702;28;20048;-45
2024/03/13 00:59:14;;;;;;;;;;;;;;;10.97;82.62;99606.03;5043145;28;20125;-49
2024/03/13 01:01:41;;;;;;;1.02;0.75;;;;;;;11.02;82.28;99611.16;5046845;28;20599;-47
2024/03/13 01:04:08;;;;;;;1.55;0.38;;;;;;;11.00;83.54;99613.78;5038791;28;20063;-49
2024/03/13 01:06:35;;;;;;;2.00;0.52;;;;;;;11.14;82.11;99620.50;5040484;28;20083;-49
2024/03/13 01:09:02;;;;;;;0.93;0.60;;;;;;;11.13;83.19;99624.88;5037055;28;20498;-46
2024/03/13 01:11:31;;;;;;;2.83;0.50;;;;;;;11.16;82.66;99623.97;5039399;28;20056;-49
2024/03/13 01:13:57;;;;;;;1.20;0.70;;;;;;;11.17;82.09;99615.31;5040675;28;20057;-45
2024/03/13 01:16:25;;;;;;;1.70;0.73;;;;;;;11.23;82.26;99625.59;5041400;28;20053;-47
2024/03/13 01:18:52;;;;;;;0.75;0.60;;;;;;;11.15;82.94;99627.44;5045964;28;20549;-46
2024/03/13 01:21:21;;;;;;;2.03;1.23;;;;;;;11.03;82.45;99624.13;5038851;28;20454;-44
2024/03/13 01:23:48;;;;;;;2.53;1.35;;;;;;;11.02;83.27;99622.38;5040277;28;20073;-48
2024/03/13 01:26:15;;;;;;;2.08;0.50;;;;;;;11.23;83.02;99627.34;5044639;28;20057;-46
2024/03/13 01:28:42;;;;;;;4.15;0.90;;;;;;;11.28;81.74;99629.00;5040099;28;20080;-49
2024/03/13 01:31:09;;;;;;;1.98;0.55;;;;;;;11.25;81.84;99629.03;5038483;28;20098;-46
2024/03/13 01:33:38;;;;;;;1.83;0.50;;;;;;;11.25;82.14;99613.47;5045255;28;20128;-47
2024/03/13 01:36:06;;;;;;;1.80;0.60;;;;;;;11.27;82.56;99626.41;5038716;28;20076;-47
2024/03/13 01:38:32;;;;;;;0.75;0.30;;;;;;;11.18;81.94;99632.59;5034284;28;20523;-46
2024/03/13 01:55:23;;;;;;;3.03;0.85;;;;;;;11.26;82.08;99604.84;5042608;28;20053;-49
2024/03/13 02:03:29;;;;;;;0.98;0.82;;;;;;;11.03;81.36;99600.78;5056670;28;20052;-49
2024/03/13 02:05:57;;;;;;;2.03;0.77;;;;;;;11.16;81.46;99587.66;5042351;28;20062;-47
2024/03/13 02:08:24;;;;;;;4.40;0.63;;;;;;;11.17;81.54;99589.38;5039350;28;20144;-49
2024/03/13 02:10:51;;;;;;;0.75;0.45;;;;;;;11.11;80.95;99584.28;5040529;28;20041;-47
2024/03/13 02:13:18;;;;;;;3.00;0.80;;;;;;;11.04;81.57;99604.22;5039781;28;20123;-48
2024/03/13 02:15:45;;;;;;;4.72;0.90;;;;;;;11.08;82.30;99592.09;5039765;28;20049;-48
2024/03/13 02:18:24;;;;;;;1.25;0.93;;;;;;;10.97;81.63;99577.53;5032973;28;20084;-49
2024/03/13 02:20:52;;;;;;;4.70;0.93;;;;;;;10.98;82.21;99568.88;5032989;28;20487;-45
2024/03/13 02:23:22;;;;;;;4.13;0.98;;;;;;;11.07;81.70;99577.44;5019711;28;20048;-45
2024/03/13 02:25:51;;;;;;;3.08;1.23;;;;;;;10.99;82.08;99586.16;5024778;28;20056;-48
2024/03/13 02:28:36;;;;;;;1.10;0.63;;;;;;;11.01;82.00;99579.19;5040572;28;20045;-45
2024/03/13 02:31:06;;;;;;;4.22;1.63;;;;;;;11.04;82.16;99580.91;5034476;28;20049;-46
2024/03/13 02:33:34;;;;;;;2.83;0.57;;;;;;;10.99;81.47;99575.78;5040176;28;20079;-45
2024/03/13 02:36:01;;;;;;;5.28;1.35;;;;;;;10.92;81.90;99585.34;5039246;28;20053;-47
2024/03/13 02:38:28;;;;;;;2.00;1.48;;;;;;;10.88;82.35;99588.00;5034372;28;20041;-46
2024/03/13 02:40:55;;;;;;;2.08;0.40;;;;;;;10.98;82.24;99574.06;5039270;28;20072;-46
2024/03/13 02:43:22;;;;;;;2.80;1.10;;;;;;;10.93;81.77;99565.47;5043309;28;20128;-44
2024/03/13 02:45:50;;;;;;;0.93;0.70;;;;;;;10.99;82.33;99564.56;5035339;28;20061;-45
2024/03/13 02:48:17;;;;;;;1.75;0.60;;;;;;;10.98;82.14;99568.88;5038184;28;20049;-51
2024/03/13 02:50:44;;;;;;;2.30;2.20;;;;;;;10.80;81.61;99569.94;5068756;28;20425;-47
2024/03/13 02:53:11;;;;;;;2.03;1.00;;;;;;;11.00;81.27;99567.13;5077763;28;20052;-47
2024/03/13 02:55:38;;;;;;;2.70;1.33;;;;;;;10.79;82.07;99557.88;5081206;28;20425;-48
2024/03/13 02:58:06;;;;;;;4.43;1.55;;;;;;;10.93;81.88;99549.94;5079816;28;20134;-47
2024/03/13 03:00:32;;;;;;;2.13;1.42;;;;;;;10.90;82.37;99552.56;5074646;28;20056;-44
2024/03/13 03:03:01;;;;;;;5.72;0.75;;;;;;;10.86;82.41;99556.06;5082285;28;20139;-46
2024/03/13 03:05:28;;;;;;;3.67;0.90;;;;;;;10.85;81.41;99562.13;5080243;28;20106;-47
2024/03/13 03:07:55;;;;;;;4.00;0.98;;;;;;;10.87;82.32;99556.06;5082571;28;20117;-45
2024/03/13 03:10:22;;;;;;;4.40;1.25;;;;;;;10.89;81.28;99556.03;5078176;28;20048;-47
2024/03/13 03:12:49;;;;;;;2.55;0.80;;;;;;;10.85;82.57;99551.78;5059632;28;20539;-50
2024/03/13 03:15:18;;;;;;;3.78;1.13;;;;;;;10.84;81.02;99544.88;5065214;28;20070;-47
2024/03/13 03:17:45;;;;;;;4.93;0.90;;;;;;;10.88;81.24;99536.19;5064172;28;20143;-46
2024/03/13 03:20:15;;;;;;;4.22;0.90;;;;;;;10.79;81.34;99544.94;5063872;28;20048;-49
2024/03/13 03:22:42;;;;;;;1.95;0.77;;;;;;;10.72;81.68;99540.69;5065761;28;20055;-46
2024/03/13 03:25:09;;;;;;;1.80;0.75;;;;;;;10.88;80.43;99533.59;5063256;28;20048;-50
2024/03/13 03:27:36;;;;;;;3.80;0.82;;;;;;;10.77;80.84;99538.88;5061845;28;20053;-45
2024/03/13 03:30:04;;;;;;;3.15;0.88;;;;;;;10.80;80.51;99534.56;5068563;28;20106;-50
2024/03/13 03:32:31;;;;;;;0.98;0.65;;;;;;;10.74;80.74;99537.19;5066621;28;20042;-46
2024/03/13 03:34:58;;;;;;;3.75;0.85;;;;;;;10.75;81.19;99520.81;5058823;28;20071;-47
2024/03/13 03:37:24;;;;;;;1.92;0.85;;;;;;;10.73;80.58;99527.72;5065264;28;20048;-49
2024/03/13 03:39:51;;;;;;;1.48;0.80;;;;;;;10.75;80.71;99526.00;5064864;28;20048;-46
2024/03/13 03:42:18;;;;;;;2.47;1.08;;;;;;;10.77;80.92;99532.00;5058797;28;20786;-45
2024/03/13 03:44:45;;;;;;;1.10;0.63;;;;;;;10.65;80.03;99524.38;5059580;28;20056;-49
2024/03/13 03:47:11;;;;;;;3.92;0.95;;;;;;;10.61;80.52;99522.69;5065365;28;20047;-46
2024/03/13 03:49:39;;;;;;;5.30;0.63;;;;;;;10.58;80.41;99508.06;5059637;28;20092;-48
2024/03/13 03:52:07;;;;;;;3.15;0.93;;;;;;;10.64;80.33;99501.94;5066857;28;20052;-46
2024/03/13 03:54:34;;;;;;;4.93;0.93;;;;;;;10.61;80.25;99508.00;5062543;28;20049;-46
2024/03/13 03:57:01;;;;;;;5.15;0.60;;;;;;;10.67;80.35;99507.94;5064399;28;20048;-47
2024/03/13 03:59:28;;;;;;;1.77;0.55;;;;;;;10.70;79.80;99507.03;5065919;28;20044;-48
2024/03/13 04:01:54;;;;;;;3.85;0.70;;;;;;;10.66;79.62;99500.19;5063026;28;20135;-45
2024/03/13 04:04:23;;;;;;;0.93;0.85;;;;;;;10.63;80.07;99503.66;5065927;28;20718;-45
2024/03/13 04:06:50;;;;;;;1.77;0.88;;;;;;;10.70;79.39;99501.00;5061598;28;20056;-48
2024/03/13 04:09:18;;;;;;;3.13;0.85;;;;;;;10.68;80.09;99508.81;5065798;28;20101;-47
2024/03/13 04:11:45;;;;;;;3.42;1.13;;;;;;;10.66;80.51;99511.41;5063942;28;20109;-51
2024/03/13 04:14:11;;;;;;;2.00;0.60;;;;;;;10.66;80.70;99511.41;5065562;28;20044;-47
2024/03/13 04:16:39;;;;;;;1.13;1.02;;;;;;;10.64;79.63;99517.47;5063998;28;20509;-46
2024/03/13 04:19:06;;;;;;;1.73;1.13;;;;;;;10.69;79.64;99526.03;5065348;28;20055;-44
2024/03/13 04:21:33;;;;;;;3.58;1.50;;;;;;;10.65;79.26;99524.38;5065969;28;20470;-49
2024/03/13 04:24:00;;;;;;;2.80;1.10;;;;;;;10.64;79.16;99527.84;5063236;28;20057;-50
2024/03/13 04:26:29;;;;;;;1.45;0.60;;;;;;;10.69;79.32;99527.75;5063437;28;20046;-50
2024/03/13 04:28:58;;;;;;;1.55;1.30;;;;;;;10.64;79.20;99527.84;5065738;28;20045;-46
2024/03/13 04:31:26;;;;;;;1.27;1.17;;;;;;;10.65;79.57;99525.25;5065542;28;20068;-46
2024/03/13 04:33:53;;;;;;;2.13;0.63;;;;;;;10.67;79.73;99517.41;5066920;28;20523;-45
2024/03/13 04:36:21;;;;;;;2.10;0.50;;;;;;;10.71;79.03;99523.44;5061166;28;20056;-46
2024/03/13 04:38:51;;;;;;;2.78;0.75;;;;;;;10.77;78.97;99513.84;5066123;28;20068;-45
2024/03/13 04:41:18;;;;;;;;;;;;;;;10.59;80.38;99519.25;5065477;28;20059;-50
2024/03/13 04:43:46;;;;;;;0.88;0.63;;;;;;;10.67;80.48;99520.88;5060240;28;19930;-49
2024/03/13 04:46:15;;;;;;;4.60;1.40;;;;;;;10.78;79.76;99518.16;5063934;28;20131;-45
2024/03/13 04:48:43;;;;;;;4.93;1.25;;;;;;;10.72;79.63;99526.00;5057472;28;20058;-45
2024/03/13 04:51:10;;;;;;;4.53;1.02;;;;;;;10.80;79.65;99523.31;5065498;28;20045;-44
2024/03/13 04:53:36;;;;;;;2.25;0.93;;;;;;;10.66;80.00;99520.91;5062598;28;20067;-47
2024/03/13 04:56:03;;;;;;;4.18;1.20;;;;;;;10.83;79.72;99514.66;5065119;28;20063;-46
2024/03/13 04:58:30;;;;;;;3.05;0.60;;;;;;;10.78;79.57;99515.56;5060398;28;20056;-44
2024/03/13 05:00:57;;;;;;;3.05;0.70;;;;;;;10.76;79.54;99517.34;5062793;28;20555;-46
2024/03/13 05:03:24;;;;;;;3.40;1.10;;;;;;;10.80;80.06;99519.00;5065932;28;20044;-50
2024/03/13 05:05:50;;;;;;;4.15;1.10;;;;;;;10.90;80.13;99518.88;5065386;28;20055;-45
2024/03/13 05:08:17;;;;;;;3.92;1.25;;;;;;;10.89;78.39;99517.19;5065253;28;20049;-43
2024/03/13 05:10:44;;;;;;;1.38;0.75;;;;;;;10.85;79.85;99512.91;5064938;28;20056;-47
2024/03/13 05:13:11;;;;;;;3.97;1.02;;;;;;;10.82;79.15;99510.34;5063101;28;20114;-46
2024/03/13 05:15:38;;;;;;;2.45;1.02;;;;;;;10.85;80.00;99510.31;5063450;28;20056;-48
2024/03/13 05:18:04;;;;;;;3.53;1.30;;;;;;;10.79;80.08;99511.25;5065179;28;20049;-45
2024/03/13 05:20:31;;;;;;;2.20;1.27;;;;;;;10.79;79.42;99509.53;5061251;28;20071;-47
2024/03/13 05:22:58;;;;;;;5.80;0.98;;;;;;;10.80;79.11;99502.59;5066826;28;20067;-44
2024/03/13 05:25:24;;;;;;;5.25;0.85;;;;;;;10.83;79.79;99506.88;5065249;28;20048;-46
2024/03/13 05:27:51;;;;;;;3.10;1.55;;;;;;;10.92;79.60;99501.59;5066231;28;20070;-46
2024/03/13 05:30:18;;;;;;;4.45;0.85;;;;;;;10.89;78.73;99506.81;5065881;28;20161;-44
2024/03/13 05:32:45;;;;;;;3.30;1.13;;;;;;;10.89;79.83;99504.22;5065929;28;20048;-49
2024/03/13 05:35:13;;;;;;;2.47;2.38;;;;;;;10.76;79.09;99503.50;5065905;28;20474;-48
2024/03/13 05:37:40;;;;;;;1.15;0.65;;;;;;;10.83;79.41;99504.28;5062595;28;20052;-45
2024/03/13 05:40:12;;;;;;;4.18;0.80;;;;;;;10.88;79.28;99505.09;5062582;28;20044;-47
2024/03/13 05:42:41;;;;;;;1.35;1.02;;;;;;;10.85;79.99;99512.91;5062794;28;20047;-47
2024/03/13 05:45:09;;;;;;;2.85;0.80;;;;;;;10.80;79.64;99516.41;5065714;28;20045;-46
2024/03/13 05:47:36;;;;;;;5.22;0.90;;;;;;;10.86;78.88;99506.84;5065713;28;20074;-43
2024/03/13 05:50:03;;;;;;;1.85;0.57;;;;;;;10.91;79.58;99507.66;5066173;28;20041;-50
2024/03/13 05:52:29;;;;;;;1.63;0.73;;;;;;;10.85;79.01;99511.19;5063851;28;20048;-45
2024/03/13 05:54:56;;;;;;;4.43;0.93;;;;;;;10.86;79.60;99504.25;5061296;28;20052;-44
2024/03/13 05:57:23;;;;;;;5.07;0.88;;;;;;;10.89;80.11;99507.69;5066079;28;20117;-45
2024/03/13 05:59:51;;;;;;;3.65;1.20;;;;;;;10.87;79.11;99509.41;5063421;28;20471;-46
2024/03/13 06:02:18;;;;;;;1.90;0.80;;;;;;;10.80;80.05;99513.81;5056909;28;20079;-45
2024/03/13 06:04:46;;;;;;;1.67;0.73;;;;;;;10.86;79.90;99507.72;5062265;28;20052;-50
2024/03/13 06:07:12;;;;;;;2.38;1.88;;;;;;;10.91;78.83;99510.25;5061549;28;20417;-43
2024/03/13 06:09:39;;;;;;;1.90;0.90;;;;;;;10.78;79.26;99510.38;5062038;28;20085;-48
2024/03/13 06:12:06;;;;;;;1.92;1.15;;;;;;;10.77;80.29;99503.50;5055156;28;20044;-46
2024/03/13 06:14:33;;;;;;;1.92;0.85;;;;;;;10.86;79.14;99501.66;5061912;28;20070;-46
2024/03/13 06:17:00;;;;;;;2.08;1.10;;;;;;;10.76;79.29;99506.97;5060741;28;20048;-49
2024/03/13 06:19:27;;;;;;;1.20;0.68;;;;;;;10.83;79.21;99506.88;5059528;28;20056;-46
2024/03/13 06:21:53;;;;;;;3.15;1.02;;;;;;;10.78;79.67;99499.19;5061417;28;20163;-48
2024/03/13 06:24:30;;;;;;;3.40;0.82;;;;;;;10.80;79.45;99503.47;5059184;28;20103;-51
2024/03/13 06:27:00;;;;;;;2.10;2.00;;;;;;;10.77;79.18;99493.13;5060084;28;20405;-45
2024/03/13 06:32:14;;;;;;;2.90;0.80;;;;;;;10.77;79.47;99505.22;5056117;28;20814;-45
2024/03/13 06:34:41;;;;;;;1.33;0.63;;;;;;;10.76;78.96;99512.16;5062827;28;20052;-47
2024/03/13 06:37:08;;;;;;;2.40;0.47;;;;;;;10.85;79.57;99510.31;5058461;28;20091;-44
2024/03/13 06:39:35;;;;;;;2.33;0.93;;;;;;;10.80;78.79;99503.47;5059914;28;20049;-45
2024/03/13 06:42:02;;;;;;;3.97;2.28;;;;;;;10.90;79.77;99504.19;5057114;28;20479;-46
2024/03/13 06:44:29;;;;;;;0.95;0.70;;;;;;;10.93;78.92;99508.47;5060992;28;20048;-47
2024/03/13 06:46:56;;;;;;;1.15;0.85;;;;;;;10.94;78.43;99505.00;5060431;28;20053;-47
2024/03/13 06:49:22;;;;;;;1.80;1.02;;;;;;;10.88;78.91;99502.50;5067499;28;20052;-49
2024/03/13 06:51:49;;;;;;;1.67;0.93;;;;;;;10.96;79.19;99500.69;5062565;28;20045;-45
2024/03/13 06:54:17;;;;;;;0.90;0.43;;;;;;;10.87;79.14;99501.66;5066861;28;20053;-49
2024/03/13 06:56:47;;;;;;;2.03;1.70;;;;;;;10.92;78.78;99491.22;5061938;28;20045;-44
2024/03/13 06:59:17;;;;;;;2.83;0.88;;;;;;;10.80;79.06;99498.28;5065110;28;20049;-44
2024/03/13 07:01:47;;;;;;;;;;;;;;;10.75;78.86;99489.72;5063715;28;20056;-45
2024/03/13 07:04:14;;;;;;;1.00;0.60;;;;;;;10.86;79.03;99492.16;5068098;28;19971;-46
2024/03/13 07:06:41;;;;;;;4.10;0.90;;;;;;;10.78;79.36;99489.66;5058708;28;20072;-48
2024/03/13 07:09:09;;;;;;;4.72;1.10;;;;;;;10.85;79.21;99495.66;5066110;28;20068;-45
2024/03/13 07:11:37;;;;;;;1.60;0.70;;;;;;;10.84;79.33;99487.88;5068091;28;20143;-44
2024/03/13 07:14:04;;;;;;;5.32;1.15;;;;;;;10.83;80.15;99480.97;5067798;28;20040;-46
2024/03/13 07:16:32;;;;;;;3.30;1.50;;;;;;;10.84;79.16;99474.94;5066041;28;20395;-46
2024/03/13 07:18:59;;;;;;;5.65;0.65;;;;;;;10.89;79.78;99465.34;5068818;28;20060;-46
2024/03/13 07:21:26;;;;;;;1.73;0.60;;;;;;;10.85;80.10;99476.63;5067078;28;20048;-48
2024/03/13 07:23:52;;;;;;;1.85;1.25;;;;;;;10.83;79.78;99474.06;5057354;28;20049;-47
2024/03/13 07:26:19;;;;;;;1.95;0.85;;;;;;;10.96;78.81;99467.00;5067095;28;20060;-46
2024/03/13 07:28:46;;;;;;;2.22;1.80;;;;;;;10.94;79.61;99463.56;5068880;28;20460;-45
2024/03/13 07:31:12;;;;;;;1.75;0.95;;;;;;;10.89;78.79;99460.19;5066225;28;20052;-47
2024/03/13 07:33:39;;;;;;;1.90;0.80;;;;;;;10.80;80.23;99474.97;5068803;28;20064;-47
2024/03/13 07:36:07;;;;;;;1.52;0.88;;;;;;;10.95;79.81;99480.84;5067499;28;20087;-45
2024/03/13 07:38:34;;;;;;;3.53;1.13;;;;;;;10.97;80.20;99486.84;5067954;28;20048;-44
2024/03/13 07:41:02;;;;;;;1.63;0.75;;;;;;;11.09;79.84;99484.97;5066929;28;20052;-48
2024/03/13 07:43:30;;;;;;;2.42;0.82;;;;;;;11.05;79.15;99482.41;5065800;28;20044;-48
2024/03/13 07:45:57;;;;;;;3.33;1.45;;;;;;;11.09;79.76;99488.41;5065248;28;20044;-45
2024/03/13 07:48:24;;;;;;;1.80;1.13;;;;;;;11.17;79.45;99490.88;5066558;28;20048;-47
2024/03/13 07:50:51;;;;;;;1.10;0.82;;;;;;;11.08;79.82;99491.03;5066728;28;20045;-49
2024/03/13 07:53:21;;;;;;;1.73;1.15;;;;;;;11.14;78.37;99491.78;5062291;28;20546;-46
2024/03/13 07:55:49;;;;;;;2.05;1.95;;;;;;;10.95;79.18;99496.38;5066171;28;20085;-45
2024/03/13 07:58:15;;;;;;;1.50;0.95;;;;;;;11.05;80.06;99520.44;5066035;28;20044;-45
2024/03/13 08:00:42;;;;;;;3.33;1.38;;;;;;;11.04;78.91;99532.53;5065419;28;20485;-51
2024/03/13 08:03:09;;;;;;;0.75;0.50;;;;;;;11.10;78.87;99531.59;5064309;28;20057;-48
2024/03/13 08:05:36;;;;;;;1.42;1.00;;;;;;;11.12;78.90;99528.97;5059144;28;20063;-47
2024/03/13 08:08:03;;;;;;;1.45;0.90;;;;;;;11.17;79.58;99532.34;5064633;28;20052;-48
2024/03/13 08:10:47;;;;;;;2.05;0.95;;;;;;;11.17;79.40;99529.75;5060691;28;20098;-48
2024/03/13 08:13:31;;;;;;;1.23;0.82;;;;;;;11.07;79.19;99528.19;5057644;28;20788;-48
2024/03/13 08:16:15;;;;;;;1.83;0.50;;;;;;;11.04;78.95;99527.34;5061343;28;20099;-47
2024/03/13 08:19:00;;;;;;;3.22;0.90;;;;;;;11.22;79.17;99514.16;5064789;28;20128;-49
2024/03/13 08:21:44;;;;;;;1.17;0.98;;;;;;;11.23;79.63;99532.28;5062134;28;20090;-47
2024/03/13 08:24:28;;;;;;;1.75;1.65;;;;;;;11.17;79.80;99537.53;5065245;28;20451;-47
2024/03/13 08:27:13;;;;;;;3.40;0.65;;;;;;;11.15;79.07;99531.53;5063480;28;20043;-44
2024/03/13 08:29:57;;;;;;;3.20;0.90;;;;;;;11.24;79.33;99536.59;5055869;28;20071;-48
2024/03/13 08:32:43;;;;;;;0.50;0.47;;;;;;;11.17;78.95;99527.16;5061579;28;20111;-47
2024/03/13 08:35:28;;;;;;;0.95;0.95;;;;;;;11.26;79.45;99521.00;5064308;28;20044;-45
2024/03/13 08:38:13;;;;;;;2.63;0.85;;;;;;;11.15;79.27;99526.34;5064270;28;20067;-47
2024/03/13 08:40:57;;;;;;;3.65;0.70;;;;;;;11.27;79.50;99526.19;5064941;28;20135;-46
2024/03/13 08:43:41;;;;;;;2.08;1.98;;;;;;;11.24;79.41;99531.41;5065197;28;20577;-46
2024/03/13 08:46:26;;;;;;;0.68;0.68;;;;;;;11.31;78.77;99524.38;5064952;28;20074;-47
2024/03/13 08:49:10;;;;;;;1.48;0.80;;;;;;;11.40;79.40;99528.59;5065423;28;20819;-47
2024/03/13 08:51:55;;;;;;;0.55;0.55;;;;;;;11.35;78.46;99530.41;5065248;28;20035;-49
2024/03/13 08:54:41;;;;;;;1.23;0.52;;;;;;;11.34;78.25;99533.88;5063353;28;20520;-47
2024/03/13 08:57:28;;;;;;;3.78;1.05;;;;;;;11.46;79.06;99528.50;5059177;28;20067;-47
2024/03/13 09:00:13;;;;;;;1.17;1.17;;;;;;;11.41;78.82;99536.34;5065353;28;20055;-45
2024/03/13 09:02:59;;;;;;;0.60;0.60;;;;;;;11.54;77.69;99536.16;5065928;28;20090;-47
2024/03/13 09:05:44;;;;;;;1.15;0.77;;;;;;;11.60;77.99;99545.59;5059468;28;20094;-48
2024/03/13 09:08:23;;;;;;;2.25;1.20;;;;;;;11.49;78.33;99538.84;5060104;28;20060;-45
2024/03/13 09:11:10;;;;;;;1.77;1.08;;;;;;;11.57;78.57;99549.97;5065732;28;20524;-47
2024/03/13 09:13:36;;;;;;;1.17;0.50;;;;;;;11.54;77.85;99551.72;5064494;28;20064;-46
2024/03/13 09:16:04;;;;;;;0.63;0.50;;;;;;;11.67;78.48;99548.06;5061099;28;20048;-48
2024/03/13 09:18:31;;;;;;;1.95;0.63;;;;;;;11.70;77.49;99548.03;5061116;28;20076;-47
2024/03/13 09:20:59;;;;;;;1.70;1.02;;;;;;;11.63;77.28;99550.72;5065950;28;20037;-48
2024/03/13 09:23:25;;;;;;;2.85;0.65;;;;;;;11.85;77.79;99543.47;5065361;28;20056;-49
2024/03/13 09:25:55;;;;;;;0.95;0.80;;;;;;;11.80;77.36;99548.75;5065719;28;20044;-49
2024/03/13 09:28:21;;;;;;;1.85;0.73;;;;;;;11.85;77.79;99543.47;5064621;28;20056;-45
2024/03/13 09:30:48;;;;;;;4.43;0.77;;;;;;;11.98;76.84;99551.91;5064779;28;20051;-50
2024/03/13 09:33:14;;;;;;;1.35;0.80;;;;;;;12.12;76.50;99540.47;5064672;28;20052;-46
2024/03/13 09:35:41;;;;;;;2.10;0.70;;;;;;;12.20;77.33;99546.41;5062361;28;20131;-45
2024/03/13 09:38:10;;;;;;;4.70;1.38;;;;;;;12.28;76.08;99549.72;5060688;28;20045;-46
2024/03/13 09:40:38;;;;;;;0.60;0.60;;;;;;;12.43;76.10;99540.78;5064920;28;20044;-48
2024/03/13 09:43:09;;;;;;;2.20;1.00;;;;;;;12.42;75.54;99543.41;5060991;28;20063;-49
2024/03/13 09:45:38;;;;;;;6.47;0.85;;;;;;;12.40;76.21;99551.22;5065886;28;20056;-44
2024/03/13 09:48:06;;;;;;;1.75;0.57;;;;;;;12.37;76.08;99553.03;5063205;28;20055;-48
2024/03/13 09:50:36;;;;;;;0.65;0.65;;;;;;;12.41;75.54;99546.88;5063618;28;20509;-47
2024/03/13 09:53:15;;;;;;;1.35;0.52;;;;;;;12.33;75.77;99553.06;5064228;28;20052;-48
2024/03/13 09:55:44;;;;;;;1.35;0.70;;;;;;;12.45;75.92;99549.41;5065572;28;20048;-45
2024/03/13 09:58:12;;;;;;;1.30;0.70;;;;;;;12.45;75.48;99549.41;5062331;28;20052;-47
2024/03/13 10:00:38;;;;;;;3.25;2.58;;;;;;;12.32;74.79;99546.16;5064493;28;20579;-44
2024/03/13 10:03:16;;;;;;;0.63;0.63;;;;;;;12.39;74.79;99540.88;5063656;28;20167;-48
2024/03/13 10:05:45;;;;;;;3.70;1.20;;;;;;;12.29;75.60;99535.84;5063594;28;20048;-47
2024/03/13 10:08:13;;;;;;;1.70;1.33;;;;;;;12.40;75.67;99540.00;5063763;28;20136;-44
2024/03/13 10:10:41;;;;;;;2.22;0.80;;;;;;;12.37;75.53;99553.03;5063641;28;20057;-49
2024/03/13 10:13:11;;;;;;;1.52;0.55;;;;;;;12.46;75.24;99542.44;5063774;28;20055;-48
2024/03/13 10:15:38;;;;;;;2.22;0.75;;;;;;;12.60;75.73;99555.22;5063947;28;20075;-48
2024/03/13 10:21:02;;;;;;;2.78;1.42;;;;;;;12.53;75.41;99551.84;5083928;27;20366;-43
2024/03/13 10:23:29;;;;;;;2.03;1.52;;;;;;;12.63;75.21;99549.94;5062628;28;20136;-47
2024/03/13 10:25:58;;;;;;;2.47;2.30;;;;;;;12.52;75.45;99560.53;5053087;28;20053;-46
2024/03/13 10:28:26;;;;;;;1.83;1.73;;;;;;;12.52;74.37;99563.13;5062735;28;20044;-47
2024/03/13 10:30:56;;;;;;;1.23;0.55;;;;;;;12.59;74.93;99558.66;5062660;28;20400;-46
2024/03/13 10:33:22;;;;;;;1.98;1.50;;;;;;;12.61;75.19;99562.09;5062373;28;20056;-46
2024/03/13 10:35:50;;;;;;;3.40;1.98;;;;;;;12.74;74.88;99557.53;5060254;28;20472;-47
2024/03/13 10:38:17;;;;;;;2.80;1.67;;;;;;;12.74;74.49;99552.34;5060392;28;20045;-43
2024/03/13 10:40:43;;;;;;;1.80;1.70;;;;;;;12.77;74.58;99557.44;5059356;28;20045;-46
2024/03/13 10:43:10;;;;;;;2.97;1.33;;;;;;;12.75;74.24;99563.56;5060684;28;20057;-49
2024/03/13 10:45:38;;;;;;;4.28;1.88;;;;;;;12.78;74.42;99553.97;5060475;28;20110;-47
2024/03/13 10:48:10;;;;;;;2.13;1.65;;;;;;;12.85;74.65;99545.19;5059706;28;20052;-45
2024/03/13 10:50:37;;;;;;;2.15;2.03;;;;;;;12.85;74.46;99549.50;5056911;28;20075;-47
2024/03/13 10:53:07;;;;;;;1.40;1.30;;;;;;;12.85;75.01;99544.31;5061749;28;20399;-47
2024/03/13 10:55:35;;;;;;;2.28;1.52;;;;;;;12.90;74.68;99552.03;5057440;28;20065;-46
2024/03/13 10:58:03;;;;;;;2.80;2.25;;;;;;;12.97;74.26;99553.63;5057908;28;20045;-46
2024/03/13 11:00:30;;;;;;;2.88;1.88;;;;;;;13.01;74.32;99539.66;5060161;28;20043;-48
2024/03/13 11:02:57;;;;;;;1.85;1.75;;;;;;;12.99;74.46;99541.44;5060463;28;20056;-44
2024/03/13 11:05:24;;;;;;;3.63;1.85;;;;;;;12.94;74.41;99535.47;5059977;28;20557;-46
2024/03/13 11:07:52;;;;;;;20.52;10.20;;;;;;;12.98;74.07;99530.16;5057329;28;20049;-47
2024/03/13 11:10:22;;;;;;;23.25;14.20;;;;;;;13.13;74.68;99533.34;5063685;28;20056;-45
2024/03/13 11:12:49;;;;;;;18.90;12.40;;;;;;;13.25;74.26;99537.41;5083451;28;20056;-48
2024/03/13 11:15:25;;;;;;;18.92;10.10;;;;;;;13.45;74.25;99533.50;5074945;28;20075;-47
2024/03/13 11:17:56;;;;;;;14.57;7.78;;;;;;;13.61;73.94;99541.84;5081714;28;20055;-46
2024/03/13 11:20:26;;;;;;;2.80;2.13;;;;;;;13.67;72.87;99520.00;5079641;28;20048;-47
2024/03/13 11:23:03;;;;;;;2.22;1.52;;;;;;;13.70;72.75;99522.56;5079188;28;20048;-47
2024/03/13 11:25:31;;;;;;;2.80;2.17;;;;;;;13.80;72.38;99518.84;5081959;28;20056;-46
2024/03/13 11:28:02;;;;;;;2.08;1.88;;;;;;;13.72;71.72;99526.81;5074168;28;20056;-45
2024/03/13 11:30:29;;;;;;;3.47;2.60;;;;;;;13.73;71.68;99525.94;5071477;28;20048;-46
2024/03/13 11:32:55;;;;;;;2.97;1.20;;;;;;;13.74;72.17;99530.25;5059771;28;20076;-47
2024/03/13 11:35:23;;;;;;;1.63;0.38;;;;;;;13.73;71.66;99523.34;5067554;28;20596;-47
2024/03/13 11:37:51;;;;;;;6.15;4.78;;;;;;;13.82;71.94;99530.06;5066312;28;20051;-46
2024/03/13 11:40:19;;;;;;;2.22;2.00;;;;;;;13.88;72.09;99542.94;5072521;28;20054;-46
2024/03/13 11:42:47;;;;;;;2.88;2.67;;;;;;;13.87;71.25;99536.03;5061185;28;20101;-49
2024/03/13 11:45:15;;;;;;;2.35;2.20;;;;;;;13.86;71.58;99539.53;5063023;28;20086;-51
2024/03/13 11:50:19;;;;;;;1.95;1.85;;;;;;;14.05;71.15;99528.63;5090022;27;21196;-49
2024/03/13 11:53:04;;;;;;;1.10;1.10;;;;;;;14.08;70.80;99530.31;5060910;28;20471;-50
2024/03/13 11:55:31;;;;;;;1.60;0.57;;;;;;;14.11;71.23;99536.28;5062323;28;20044;-45
2024/03/13 11:58:18;;;;;;;1.58;0.60;;;;;;;14.04;70.11;99526.94;5063758;28;20390;-46
2024/03/13 12:00:46;;;;;;;0.40;0.30;;;;;;;14.06;70.48;99540.78;5062345;28;20044;-50
2024/03/13 12:03:14;;;;;;;0.73;0.73;;;;;;;14.00;70.76;99530.50;5065186;28;20064;-49
2024/03/13 12:05:41;;;;;;;1.60;0.60;;;;;;;14.07;71.16;99520.78;5062598;28;20094;-45
2024/03/13 12:08:15;;;;;;;4.57;0.90;;;;;;;14.14;70.63;99515.38;5062194;28;20044;-49
2024/03/13 12:10:41;;;;;;;1.25;0.82;;;;;;;14.07;71.00;99531.19;5063975;28;20055;-49